createdAt,value
2022-10-11T00:01:55.632Z,49.30
2022-10-11T00:04:21.174Z,49.18
2022-10-11T00:06:46.720Z,49.14
2022-10-11T00:09:12.565Z,49.14
2022-10-11T00:11:38.131Z,49.13
2022-10-11T00:14:03.956Z,49.20
2022-10-11T00:16:29.525Z,49.28
2022-10-11T00:18:55.081Z,49.33
2022-10-11T00:21:20.880Z,49.17
2022-10-11T00:23:46.508Z,49.18
2022-10-11T00:26:12.062Z,49.11
2022-10-11T00:28:37.638Z,49.21
2022-10-11T00:31:06.050Z,49.16
2022-10-11T00:33:31.817Z,49.17
2022-10-11T00:35:58.313Z,49.33
2022-10-11T00:38:23.859Z,49.26
2022-10-11T00:40:49.410Z,49.35
2022-10-11T00:43:16.625Z,49.28
2022-10-11T00:45:46.772Z,49.11
2022-10-11T00:48:14.258Z,49.14
2022-10-11T00:50:39.806Z,49.17
2022-10-11T00:53:07.134Z,49.28
2022-10-11T00:55:34.191Z,49.19
2022-10-11T00:57:59.884Z,49.13
2022-10-11T01:00:25.441Z,49.16
2022-10-11T01:02:51.080Z,49.25
2022-10-11T01:05:29.189Z,49.20
2022-10-11T01:07:55.403Z,49.12
2022-10-11T01:10:21.126Z,49.12
2022-10-11T01:12:52.430Z,49.19
2022-10-11T01:15:20.487Z,49.31
2022-10-11T01:17:50.721Z,49.10
2022-10-11T01:20:26.987Z,49.09
2022-10-11T01:22:59.306Z,49.12
2022-10-11T01:25:31.946Z,49.28
2022-10-11T01:28:17.435Z,49.34
2022-10-11T01:30:43.047Z,49.07
2022-10-11T01:33:11.583Z,49.22
2022-10-11T01:35:46.159Z,49.17
2022-10-11T01:38:15.228Z,49.20
2022-10-11T01:40:41.725Z,49.28
2022-10-11T01:43:07.267Z,49.28
2022-10-11T01:45:32.924Z,49.12
2022-10-11T01:48:06.976Z,49.22
2022-10-11T01:50:42.361Z,49.20
2022-10-11T01:53:27.785Z,49.17
2022-10-11T01:55:54.410Z,49.17
2022-10-11T01:58:24.755Z,49.33
2022-10-11T02:00:53.747Z,49.14
2022-10-11T02:03:22.581Z,49.19
2022-10-11T02:05:51.292Z,49.12
2022-10-11T02:10:57.970Z,49.11
2022-10-11T02:13:25.704Z,49.26
2022-10-11T02:15:51.257Z,49.15
2022-10-11T02:18:18.173Z,49.14
2022-10-11T02:20:43.724Z,49.27
2022-10-11T02:23:10.458Z,49.13
2022-10-11T02:25:36.030Z,49.28
2022-10-11T02:28:02.038Z,49.14
2022-10-11T02:30:28.195Z,49.12
2022-10-11T02:32:53.740Z,49.05
2022-10-11T02:35:19.841Z,49.23
2022-10-11T02:37:53.316Z,49.04
2022-10-11T02:40:20.964Z,49.23
2022-10-11T02:42:48.771Z,49.28
2022-10-11T02:45:16.387Z,49.14
2022-10-11T02:47:41.925Z,48.92
2022-10-11T02:50:07.524Z,49.23
2022-10-11T02:52:33.071Z,49.12
2022-10-11T02:54:58.663Z,49.09
2022-10-11T02:57:24.215Z,49.05
2022-10-11T02:59:49.760Z,49.12
2022-10-11T03:02:15.341Z,49.20
2022-10-11T03:04:40.876Z,49.21
2022-10-11T03:07:06.426Z,49.21
2022-10-11T03:09:31.968Z,49.12
2022-10-11T03:11:57.531Z,49.15
2022-10-11T03:14:23.251Z,49.10
2022-10-11T03:16:48.799Z,49.02
2022-10-11T03:19:19.021Z,49.05
2022-10-11T03:21:44.933Z,49.18
2022-10-11T03:24:10.471Z,49.02
2022-10-11T03:26:36.025Z,49.07
2022-10-11T03:29:01.560Z,49.11
2022-10-11T03:31:27.108Z,49.15
2022-10-11T03:33:52.646Z,49.10
2022-10-11T03:36:18.194Z,49.21
2022-10-11T03:38:43.730Z,49.27
2022-10-11T03:41:09.278Z,49.14
2022-10-11T03:43:34.831Z,49.16
2022-10-11T03:46:00.383Z,49.06
2022-10-11T03:48:26.002Z,49.24
2022-10-11T03:50:51.547Z,49.04
2022-10-11T03:53:17.088Z,49.16
2022-10-11T03:55:42.637Z,49.25
2022-10-11T03:58:08.503Z,49.02
2022-10-11T04:00:34.305Z,49.04
2022-10-11T04:02:59.849Z,49.09
2022-10-11T04:05:25.399Z,49.02
2022-10-11T04:07:50.942Z,49.19
2022-10-11T04:10:16.581Z,49.04
2022-10-11T04:12:42.340Z,49.08
2022-10-11T04:15:07.994Z,49.02
2022-10-11T04:17:33.533Z,49.25
2022-10-11T04:19:59.091Z,49.02
2022-10-11T04:22:24.637Z,49.12
2022-10-11T04:24:50.190Z,49.01
2022-10-11T04:27:15.729Z,48.97
2022-10-11T04:29:41.278Z,49.11
2022-10-11T04:32:06.828Z,49.21
2022-10-11T04:34:32.374Z,49.09
2022-10-11T04:36:57.923Z,49.04
2022-10-11T04:39:23.467Z,49.06
2022-10-11T04:41:49.025Z,49.17
2022-10-11T04:44:14.567Z,49.09
2022-10-11T04:46:40.108Z,49.10
2022-10-11T04:49:05.642Z,48.97
2022-10-11T04:51:32.896Z,49.04
2022-10-11T04:53:58.550Z,48.97
2022-10-11T04:56:24.098Z,49.08
2022-10-11T04:58:53.237Z,49.09
2022-10-11T05:01:19.023Z,49.09
2022-10-11T05:03:44.562Z,49.14
2022-10-11T05:06:10.334Z,49.02
2022-10-11T05:08:36.034Z,49.02
2022-10-11T05:11:03.272Z,49.01
2022-10-11T05:13:28.909Z,49.14
2022-10-11T05:15:54.567Z,49.11
2022-10-11T05:18:20.206Z,49.00
2022-10-11T05:20:45.798Z,48.97
2022-10-11T05:23:11.376Z,49.15
2022-10-11T05:25:36.942Z,49.02
2022-10-11T05:28:02.486Z,49.10
2022-10-11T05:30:28.040Z,49.30
2022-10-11T05:32:53.586Z,48.97
2022-10-11T05:35:19.129Z,49.08
2022-10-11T05:37:44.665Z,48.97
2022-10-11T05:40:10.353Z,49.10
2022-10-11T05:42:36.044Z,48.98
2022-10-11T05:45:02.041Z,48.95
2022-10-11T05:47:27.584Z,49.09
2022-10-11T05:49:53.125Z,48.98
2022-10-11T05:52:20.672Z,48.93
2022-10-11T05:54:47.464Z,48.95
2022-10-11T05:57:13.097Z,48.98
2022-10-11T05:59:38.706Z,49.03
2022-10-11T06:02:04.331Z,49.00
2022-10-11T06:04:29.869Z,49.12
2022-10-11T06:06:55.421Z,48.88
2022-10-11T06:09:20.959Z,49.08
2022-10-11T06:11:46.503Z,49.00
2022-10-11T06:14:12.063Z,49.15
2022-10-11T06:16:37.611Z,48.88
2022-10-11T06:19:03.510Z,48.89
2022-10-11T06:21:29.196Z,49.11
2022-10-11T06:24:00.878Z,48.95
2022-10-11T06:26:27.132Z,48.88
2022-10-11T06:28:52.731Z,49.03
2022-10-11T06:31:18.544Z,49.17
2022-10-11T06:33:44.131Z,49.01
2022-10-11T06:36:10.383Z,49.15
2022-10-11T06:38:37.285Z,48.96
2022-10-11T06:41:08.051Z,48.96
2022-10-11T06:43:33.594Z,49.10
2022-10-11T06:45:59.303Z,49.08
2022-10-11T06:48:24.845Z,48.91
2022-10-11T06:51:00.082Z,48.94
2022-10-11T06:53:26.438Z,48.93
2022-10-11T06:55:51.995Z,48.99
2022-10-11T06:58:17.541Z,48.96
2022-10-11T07:00:43.164Z,48.88
2022-10-11T07:03:08.849Z,48.96
2022-10-11T07:05:34.403Z,48.91
2022-10-11T07:08:00.367Z,49.03
2022-10-11T07:10:25.939Z,48.90
2022-10-11T07:12:51.531Z,49.05
2022-10-11T07:15:17.084Z,48.87
2022-10-11T07:17:42.621Z,49.05
2022-10-11T07:20:08.703Z,48.91
2022-10-11T07:22:34.242Z,49.01
2022-10-11T07:24:59.783Z,48.93
2022-10-11T07:27:25.344Z,48.91
2022-10-11T07:29:50.885Z,48.94
2022-10-11T07:32:16.440Z,48.95
2022-10-11T07:34:42.142Z,48.94
2022-10-11T07:37:07.691Z,48.94
2022-10-11T07:39:33.291Z,48.85
2022-10-11T07:41:58.885Z,48.94
2022-10-11T07:44:24.602Z,49.03
2022-10-11T07:46:50.156Z,48.93
2022-10-11T07:49:15.697Z,48.90
2022-10-11T07:51:41.257Z,48.94
2022-10-11T07:54:07.557Z,48.89
2022-10-11T07:56:33.263Z,48.97
2022-10-11T07:58:59.755Z,48.81
2022-10-11T08:01:25.753Z,48.84
2022-10-11T08:03:51.380Z,48.97
2022-10-11T08:06:18.351Z,49.10
2022-10-11T08:08:43.914Z,49.06
2022-10-11T08:11:09.772Z,48.92
2022-10-11T08:13:35.372Z,48.89
2022-10-11T08:16:00.923Z,48.80
2022-10-11T08:18:26.491Z,49.03
2022-10-11T08:20:52.056Z,48.98
2022-10-11T08:23:17.747Z,48.96
2022-10-11T08:25:44.335Z,48.91
2022-10-11T08:28:14.964Z,48.88
2022-10-11T08:30:45.889Z,48.85
2022-10-11T08:33:11.744Z,48.86
2022-10-11T08:35:37.287Z,48.93
2022-10-11T08:38:02.828Z,48.86
2022-10-11T08:40:32.801Z,48.89
2022-10-11T08:43:04.523Z,48.96
2022-10-11T08:45:32.221Z,49.02
2022-10-11T08:48:08.155Z,48.97
2022-10-11T08:50:33.712Z,48.83
2022-10-11T08:53:02.346Z,48.93
2022-10-11T08:55:44.156Z,48.79
2022-10-11T08:58:11.665Z,49.01
2022-10-11T09:00:37.500Z,48.86
2022-10-11T09:03:22.914Z,48.83
2022-10-11T09:05:51.899Z,48.78
2022-10-11T09:08:24.899Z,48.95
2022-10-11T09:10:58.469Z,48.83
2022-10-11T09:13:43.890Z,48.93
2022-10-11T09:16:16.173Z,48.80
2022-10-11T09:18:46.026Z,48.87
2022-10-11T09:21:16.432Z,48.94
2022-10-11T09:23:45.077Z,48.93
2022-10-11T09:26:12.279Z,48.80
2022-10-11T09:28:42.715Z,48.88
2022-10-11T09:31:08.870Z,48.88
2022-10-11T09:33:49.857Z,48.89
2022-10-11T09:36:25.144Z,48.76
2022-10-11T09:38:53.978Z,48.93
2022-10-11T09:41:22.700Z,48.86
2022-10-11T09:43:49.050Z,48.85
2022-10-11T09:46:16.855Z,48.80
2022-10-11T09:48:42.410Z,48.78
2022-10-11T09:51:11.775Z,48.77
2022-10-11T09:53:57.306Z,48.73
2022-10-11T09:56:23.612Z,48.81
2022-10-11T09:58:49.155Z,48.73
2022-10-11T10:01:22.165Z,48.77
2022-10-11T10:03:47.740Z,48.90
2022-10-11T10:06:15.243Z,48.86
2022-10-11T10:08:42.251Z,48.97
2022-10-11T10:11:08.331Z,48.93
2022-10-11T10:16:25.895Z,48.81
2022-10-11T10:18:53.784Z,48.86
2022-10-11T10:21:23.879Z,48.79
2022-10-11T10:23:50.747Z,49.00
2022-10-11T10:26:19.202Z,48.81
2022-10-11T10:29:01.715Z,48.93
2022-10-11T10:31:29.847Z,48.92
2022-10-11T10:33:55.448Z,48.85
2022-10-11T10:36:22.710Z,48.81
2022-10-11T10:38:52.263Z,48.86
2022-10-11T10:41:18.010Z,48.80
2022-10-11T10:43:45.043Z,48.96
2022-10-11T10:49:28.337Z,48.84
2022-10-11T10:51:44.234Z,48.95
2022-10-11T10:54:14.501Z,48.88
2022-10-11T10:56:43.671Z,48.87
2022-10-11T10:59:24.892Z,48.87
2022-10-11T11:01:54.363Z,48.86
2022-10-11T11:04:34.912Z,48.96
2022-10-11T11:07:07.072Z,48.74
2022-10-11T11:09:39.038Z,48.93
2022-10-11T11:12:10.220Z,49.02
2022-10-11T11:14:55.640Z,48.89
2022-10-11T11:17:24.710Z,48.97
2022-10-11T11:19:52.944Z,48.78
2022-10-11T11:22:24.223Z,48.87
2022-10-11T11:27:43.775Z,48.75
2022-10-11T11:30:11.496Z,49.01
2022-10-11T11:32:55.971Z,48.94
2022-10-11T11:35:30.227Z,48.78
2022-10-11T11:38:02.551Z,48.77
2022-10-11T11:40:36.373Z,48.95
2022-10-11T11:43:04.218Z,48.85
2022-10-11T11:45:32.947Z,48.79
2022-10-11T11:48:01.136Z,48.77
2022-10-11T11:50:27.853Z,49.10
2022-10-11T11:52:56.507Z,49.01
2022-10-11T11:55:41.507Z,48.88
2022-10-11T11:58:24.553Z,48.84
2022-10-11T12:01:10.083Z,48.88
2022-10-11T12:03:41.541Z,48.97
2022-10-11T12:06:15.142Z,48.66
2022-10-11T12:08:41.742Z,48.96
2022-10-11T12:11:15.879Z,48.92
2022-10-11T12:13:43.703Z,48.77
2022-10-11T12:16:10.341Z,48.77
2022-10-11T12:21:30.838Z,48.82
2022-10-11T12:23:57.379Z,49.04
2022-10-11T12:26:31.284Z,48.85
2022-10-11T12:29:01.262Z,48.96
2022-10-11T12:31:28.528Z,48.74
2022-10-11T12:36:37.532Z,48.88
2022-10-11T12:42:06.004Z,48.93
2022-10-11T12:44:31.654Z,48.99
2022-10-11T12:46:59.764Z,48.98
2022-10-11T12:49:30.312Z,48.89
2022-10-11T12:52:06.740Z,48.82
2022-10-11T12:54:52.264Z,48.88
2022-10-11T12:57:25.539Z,48.92
2022-10-11T12:59:51.089Z,48.92
2022-10-11T13:02:21.095Z,49.06
2022-10-11T13:04:46.636Z,48.83
2022-10-11T13:07:12.961Z,48.78
2022-10-11T13:09:38.947Z,48.87
2022-10-11T13:12:06.712Z,49.02
2022-10-11T13:14:36.321Z,48.77
2022-10-11T13:17:04.591Z,49.02
2022-10-11T13:19:31.701Z,48.92
2022-10-11T13:21:58.899Z,48.80
2022-10-11T13:24:25.864Z,48.83
2022-10-11T13:26:51.848Z,48.79
2022-10-11T13:29:19.856Z,48.85
2022-10-11T13:31:45.540Z,48.83
2022-10-11T13:34:11.103Z,48.93
2022-10-11T13:36:36.652Z,48.88
2022-10-11T13:39:02.206Z,48.86
2022-10-11T13:41:28.740Z,48.94
2022-10-11T13:43:54.736Z,48.87
2022-10-11T13:46:21.547Z,48.90
2022-10-11T13:48:55.780Z,48.89
2022-10-11T13:51:31.419Z,48.88
2022-10-11T13:53:58.201Z,48.90
2022-10-11T13:56:23.747Z,48.81
2022-10-11T13:58:49.279Z,48.79
2022-10-11T14:01:17.049Z,48.82
2022-10-11T14:03:46.920Z,48.83
2022-10-11T14:06:12.479Z,48.82
2022-10-11T14:08:42.561Z,48.98
2022-10-11T14:11:08.875Z,48.90
2022-10-11T14:13:35.741Z,48.90
2022-10-11T14:16:09.443Z,48.94
2022-10-11T14:18:38.896Z,48.88
2022-10-11T14:21:22.347Z,48.90
2022-10-11T14:23:49.652Z,48.89
2022-10-11T14:26:18.763Z,48.90
2022-10-11T14:28:44.792Z,48.82
2022-10-11T14:31:10.474Z,48.81
2022-10-11T14:33:36.063Z,48.84
2022-10-11T14:36:01.603Z,49.02
2022-10-11T14:38:27.138Z,49.07
2022-10-11T14:40:52.693Z,49.07
2022-10-11T14:43:18.240Z,48.89
2022-10-11T14:45:43.916Z,49.01
2022-10-11T14:48:09.613Z,48.88
2022-10-11T14:50:38.721Z,48.95
2022-10-11T14:53:05.060Z,48.82
2022-10-11T14:55:30.618Z,48.92
2022-10-11T14:57:56.164Z,48.89
2022-10-11T15:00:23.035Z,48.94
2022-10-11T15:02:49.132Z,48.97
2022-10-11T15:05:14.676Z,48.92
2022-10-11T15:07:40.225Z,48.88
2022-10-11T15:10:14.290Z,48.89
2022-10-11T15:12:39.824Z,48.99
2022-10-11T15:15:05.463Z,49.00
2022-10-11T15:17:31.011Z,49.03
2022-10-11T15:19:56.560Z,48.90
2022-10-11T15:22:22.109Z,49.02
2022-10-11T15:24:51.474Z,49.00
2022-10-11T15:27:17.275Z,48.94
2022-10-11T15:29:42.817Z,48.97
2022-10-11T15:32:08.371Z,48.86
2022-10-11T15:34:33.910Z,48.94
2022-10-11T15:36:59.461Z,49.04
2022-10-11T15:39:26.810Z,48.83
2022-10-11T15:41:52.395Z,48.84
2022-10-11T15:44:17.932Z,48.97
2022-10-11T15:46:43.488Z,48.85
2022-10-11T15:49:10.723Z,48.99
2022-10-11T15:51:36.264Z,49.04
2022-10-11T15:54:01.806Z,48.63
2022-10-11T15:56:31.588Z,49.06
2022-10-11T15:58:59.190Z,48.92
2022-10-11T16:01:24.821Z,48.77
2022-10-11T16:03:50.448Z,48.83
2022-10-11T16:06:16.223Z,48.85
2022-10-11T16:08:41.774Z,48.85
2022-10-11T16:11:07.472Z,48.56
2022-10-11T16:13:33.118Z,48.79
2022-10-11T16:16:02.509Z,48.78
2022-10-11T16:18:32.658Z,48.80
2022-10-11T16:21:00.551Z,48.95
2022-10-11T16:23:26.094Z,48.92
2022-10-11T16:25:59.287Z,48.97
2022-10-11T16:28:24.983Z,48.54
2022-10-11T16:30:50.574Z,49.04
2022-10-11T16:33:16.116Z,48.46
2022-10-11T16:35:41.856Z,48.98
2022-10-11T16:38:07.404Z,48.81
2022-10-11T16:40:35.692Z,48.53
2022-10-11T16:43:07.246Z,48.80
2022-10-11T16:45:33.355Z,48.91
2022-10-11T16:47:58.900Z,48.86
2022-10-11T16:50:24.451Z,48.92
2022-10-11T16:52:50.003Z,48.80
2022-10-11T16:55:15.556Z,48.83
2022-10-11T16:57:41.102Z,48.86
2022-10-11T17:00:07.781Z,48.91
2022-10-11T17:02:33.459Z,48.68
2022-10-11T17:04:58.999Z,48.39
2022-10-11T17:07:24.544Z,48.67
2022-10-11T17:09:50.082Z,48.83
2022-10-11T17:12:16.623Z,48.50
2022-10-11T17:14:42.642Z,48.37
2022-10-11T17:17:08.888Z,48.77
2022-10-11T17:19:34.435Z,48.61
2022-10-11T17:22:00.026Z,48.44
2022-10-11T17:24:25.568Z,48.29
2022-10-11T17:26:51.447Z,48.72
2022-10-11T17:29:17.174Z,48.85
2022-10-11T17:31:48.069Z,48.75
2022-10-11T17:34:14.902Z,48.66
2022-10-11T17:36:40.479Z,48.47
2022-10-11T17:39:06.954Z,48.84
2022-10-11T17:41:32.605Z,48.53
2022-10-11T17:43:58.616Z,48.60
2022-10-11T17:46:26.695Z,49.10
2022-10-11T17:48:54.672Z,48.74
2022-10-11T17:51:20.314Z,48.85
2022-10-11T17:53:46.275Z,48.46
2022-10-11T17:56:13.068Z,48.77
2022-10-11T17:58:38.673Z,48.38
2022-10-11T18:01:05.832Z,48.38
2022-10-11T18:03:31.906Z,48.29
2022-10-11T18:05:57.459Z,48.53
2022-10-11T18:08:22.999Z,48.30
2022-10-11T18:10:48.552Z,48.74
2022-10-11T18:13:15.384Z,48.58
2022-10-11T18:15:41.059Z,48.60
2022-10-11T18:18:06.629Z,48.64
2022-10-11T18:20:32.389Z,48.68
2022-10-11T18:22:58.095Z,48.73
2022-10-11T18:25:23.650Z,48.26
2022-10-11T18:27:49.856Z,48.60
2022-10-11T18:30:15.402Z,48.27
2022-10-11T18:32:40.962Z,48.81
2022-10-11T18:35:06.637Z,48.50
2022-10-11T18:37:32.200Z,48.26
2022-10-11T18:39:57.743Z,48.21
2022-10-11T18:42:23.289Z,48.38
2022-10-11T18:44:48.836Z,48.29
2022-10-11T18:47:14.382Z,48.58
2022-10-11T18:49:39.914Z,48.25
2022-10-11T18:52:05.462Z,48.22
2022-10-11T18:54:31.008Z,48.69
2022-10-11T18:56:57.494Z,48.60
2022-10-11T18:59:23.039Z,48.34
2022-10-11T19:01:51.388Z,48.41
2022-10-11T19:04:17.448Z,48.36
2022-10-11T19:06:43.999Z,48.21
2022-10-11T19:09:10.681Z,48.50
2022-10-11T19:11:36.236Z,48.45
2022-10-11T19:14:07.545Z,48.28
2022-10-11T19:16:34.145Z,48.15
2022-10-11T19:18:59.685Z,48.34
2022-10-11T19:21:25.240Z,48.26
2022-10-11T19:23:50.831Z,48.25
2022-10-11T19:26:21.422Z,48.25
2022-10-11T19:28:47.112Z,48.25
2022-10-11T19:31:15.949Z,48.20
2022-10-11T19:33:42.432Z,48.25
2022-10-11T19:36:09.356Z,48.45
2022-10-11T19:38:35.012Z,48.33
2022-10-11T19:41:00.847Z,48.28
2022-10-11T19:43:26.459Z,48.06
2022-10-11T19:45:58.328Z,48.34
2022-10-11T19:48:23.871Z,48.14
2022-10-11T19:50:49.419Z,48.21
2022-10-11T19:53:14.970Z,48.18
2022-10-11T19:55:44.264Z,48.54
2022-10-11T19:58:11.951Z,48.30
2022-10-11T20:00:37.496Z,48.71
2022-10-11T20:03:03.039Z,48.51
2022-10-11T20:05:28.581Z,48.48
2022-10-11T20:07:54.127Z,48.63
2022-10-11T20:10:19.663Z,48.37
2022-10-11T20:12:46.081Z,48.47
2022-10-11T20:15:11.683Z,48.73
2022-10-11T20:17:52.220Z,48.71
2022-10-11T20:20:18.043Z,48.74
2022-10-11T20:22:43.622Z,48.91
2022-10-11T20:25:09.164Z,49.04
2022-10-11T20:27:34.945Z,48.87
2022-10-11T20:30:00.576Z,48.77
2022-10-11T20:32:26.603Z,48.82
2022-10-11T20:34:52.143Z,48.79
2022-10-11T20:37:17.700Z,48.77
2022-10-11T20:39:43.252Z,48.70
2022-10-11T20:42:08.808Z,48.81
2022-10-11T20:44:34.356Z,48.88
2022-10-11T20:47:03.887Z,48.60
2022-10-11T20:49:29.816Z,48.92
2022-10-11T20:51:55.370Z,48.72
2022-10-11T20:54:20.911Z,48.72
2022-10-11T20:56:46.459Z,48.72
2022-10-11T20:59:11.996Z,48.78
2022-10-11T21:01:38.731Z,48.68
2022-10-11T21:04:04.655Z,48.79
2022-10-11T21:06:30.504Z,48.83
2022-10-11T21:08:56.285Z,48.73
2022-10-11T21:11:25.235Z,48.74
2022-10-11T21:13:54.830Z,48.94
2022-10-11T21:16:20.383Z,48.81
2022-10-11T21:18:48.967Z,48.80
2022-10-11T21:21:14.550Z,48.98
2022-10-11T21:23:40.203Z,48.74
2022-10-11T21:26:06.868Z,48.85
2022-10-11T21:28:32.501Z,48.82
2022-10-11T21:31:05.547Z,48.75
2022-10-11T21:33:31.103Z,48.87
2022-10-11T21:35:56.763Z,48.74
2022-10-11T21:38:22.352Z,48.87
2022-10-11T21:40:47.896Z,48.81
2022-10-11T21:43:13.451Z,48.72
2022-10-11T21:45:38.999Z,48.87
2022-10-11T21:48:05.132Z,48.81
2022-10-11T21:50:30.671Z,48.74
2022-10-11T21:52:56.224Z,48.81
2022-10-11T21:55:21.770Z,48.68
2022-10-11T21:57:47.318Z,48.90
2022-10-11T22:00:13.027Z,48.79
2022-10-11T22:02:38.577Z,48.91
2022-10-11T22:05:04.140Z,48.84
2022-10-11T22:07:29.692Z,48.75
2022-10-11T22:09:55.235Z,48.75
2022-10-11T22:12:20.800Z,48.87
2022-10-11T22:14:46.337Z,48.82
2022-10-11T22:17:11.892Z,48.73
2022-10-11T22:19:37.702Z,48.61
2022-10-11T22:22:03.329Z,48.86
2022-10-11T22:24:29.006Z,48.57
2022-10-11T22:26:54.558Z,48.81
2022-10-11T22:29:20.098Z,48.71
2022-10-11T22:31:45.650Z,48.66
2022-10-11T22:34:11.191Z,48.89
2022-10-11T22:36:36.868Z,48.79
2022-10-11T22:39:06.855Z,48.73
2022-10-11T22:41:33.433Z,48.80
2022-10-11T22:43:58.968Z,48.81
2022-10-11T22:46:24.519Z,48.77
2022-10-11T22:48:50.067Z,48.69
2022-10-11T22:51:15.986Z,48.80
2022-10-11T22:53:41.523Z,48.78
2022-10-11T22:56:07.982Z,48.68
2022-10-11T22:58:33.542Z,48.62
2022-10-11T23:01:05.298Z,48.87
2022-10-11T23:03:30.948Z,48.69
2022-10-11T23:05:56.669Z,48.70
2022-10-11T23:08:22.373Z,48.81
2022-10-11T23:10:47.911Z,48.66
2022-10-11T23:13:13.468Z,48.67
2022-10-11T23:15:39.797Z,48.80
2022-10-11T23:18:05.363Z,48.64
2022-10-11T23:20:30.900Z,48.72
2022-10-11T23:22:56.451Z,48.62
2022-10-11T23:25:21.995Z,48.67
2022-10-11T23:27:47.553Z,48.69
2022-10-11T23:30:13.165Z,48.72
2022-10-11T23:32:38.711Z,48.56
2022-10-11T23:35:04.860Z,48.76
2022-10-11T23:37:30.411Z,48.64
2022-10-11T23:39:55.948Z,48.67
2022-10-11T23:42:21.497Z,48.60
2022-10-11T23:44:47.035Z,48.66
2022-10-11T23:47:12.589Z,48.65
2022-10-11T23:49:38.128Z,48.74
2022-10-11T23:52:03.675Z,48.70
2022-10-11T23:54:29.220Z,48.66
2022-10-11T23:56:54.771Z,48.74
2022-10-11T23:59:20.308Z,48.66
